sensor_id;sensor_type;location;lat;lon;timestamp;pressure;altitude;pressure_sealevel;temperature;humidity
29045;BME280;16133;49.486;12.176;2023-11-25T00:00:52;95696.69;;;0.12;100.00
29045;BME280;16133;49.486;12.176;2023-11-25T00:03:18;95700.94;;;0.13;100.00
29045;BME280;16133;49.486;12.176;2023-11-25T00:05:43;95705.53;;;0.27;100.00
29045;BME280;16133;49.486;12.176;2023-11-25T00:08:09;95704.09;;;0.33;100.00
29045;BME280;16133;49.486;12.176;2023-11-25T00:10:34;95717.28;;;0.31;100.00
29045;BME280;16133;49.486;12.176;2023-11-25T00:13:00;95709.59;;;0.22;100.00
29045;BME280;16133;49.486;12.176;2023-11-25T00:15:26;95725.94;;;0.32;100.00
29045;BME280;16133;49.486;12.176;2023-11-25T00:17:52;95751.44;;;0.46;100.00
29045;BME280;16133;49.486;12.176;2023-11-25T00:20:19;95763.63;;;0.37;100.00
29045;BME280;16133;49.486;12.176;2023-11-25T00:22:45;95765.47;;;0.19;100.00
29045;BME280;16133;49.486;12.176;2023-11-25T00:25:11;95778.88;;;0.24;100.00
29045;BME280;16133;49.486;12.176;2023-11-25T00:27:37;95792.88;;;0.15;100.00
29045;BME280;16133;49.486;12.176;2023-11-25T00:30:03;95784.09;;;0.24;100.00
29045;BME280;16133;49.486;12.176;2023-11-25T00:32:30;95780.75;;;0.06;100.00
29045;BME280;16133;49.486;12.176;2023-11-25T00:34:55;95779.09;;;0.05;100.00
29045;BME280;16133;49.486;12.176;2023-11-25T00:37:21;95800.75;;;0.31;100.00
29045;BME280;16133;49.486;12.176;2023-11-25T00:39:47;95811.00;;;0.25;100.00
29045;BME280;16133;49.486;12.176;2023-11-25T00:42:12;95816.69;;;0.20;100.00
29045;BME280;16133;49.486;12.176;2023-11-25T00:44:38;95822.09;;;0.01;100.00
29045;BME280;16133;49.486;12.176;2023-11-25T00:47:03;95834.53;;;0.07;100.00
29045;BME280;16133;49.486;12.176;2023-11-25T00:49:30;95823.94;;;0.09;100.00
29045;BME280;16133;49.486;12.176;2023-11-25T00:52:01;95832.91;;;0.06;100.00
29045;BME280;16133;49.486;12.176;2023-11-25T00:54:27;95853.06;;;0.04;100.00
29045;BME280;16133;49.486;12.176;2023-11-25T00:56:54;95845.38;;;-0.06;100.00
29045;BME280;16133;49.486;12.176;2023-11-25T00:59:19;95859.75;;;-0.02;100.00
29045;BME280;16133;49.486;12.176;2023-11-25T01:01:45;95861.22;;;0.01;100.00
29045;BME280;16133;49.486;12.176;2023-11-25T01:04:11;95860.25;;;0.02;100.00
29045;BME280;16133;49.486;12.176;2023-11-25T01:06:36;95862.94;;;-0.08;100.00
29045;BME280;16133;49.486;12.176;2023-11-25T01:09:03;95872.41;;;-0.07;100.00
29045;BME280;16133;49.486;12.176;2023-11-25T01:11:28;95868.00;;;-0.06;100.00
29045;BME280;16133;49.486;12.176;2023-11-25T01:13:54;95872.56;;;-0.08;100.00
29045;BME280;16133;49.486;12.176;2023-11-25T01:16:19;95867.81;;;-0.30;100.00
29045;BME280;16133;49.486;12.176;2023-11-25T01:18:44;95883.59;;;-0.14;100.00
29045;BME280;16133;49.486;12.176;2023-11-25T01:21:10;95886.06;;;-0.13;100.00
29045;BME280;16133;49.486;12.176;2023-11-25T01:23:35;95905.41;;;-0.15;100.00
29045;BME280;16133;49.486;12.176;2023-11-25T01:26:00;95887.03;;;-0.14;100.00
29045;BME280;16133;49.486;12.176;2023-11-25T01:28:26;95900.50;;;-0.18;100.00
29045;BME280;16133;49.486;12.176;2023-11-25T01:30:51;95898.13;;;-0.12;100.00
29045;BME280;16133;49.486;12.176;2023-11-25T01:33:16;95909.06;;;-0.08;100.00
29045;BME280;16133;49.486;12.176;2023-11-25T01:35:42;95912.78;;;-0.11;100.00
29045;BME280;16133;49.486;12.176;2023-11-25T01:38:08;95916.81;;;-0.16;100.00
29045;BME280;16133;49.486;12.176;2023-11-25T01:40:34;95916.44;;;-0.21;100.00
29045;BME280;16133;49.486;12.176;2023-11-25T01:42:59;95914.44;;;-0.27;100.00
29045;BME280;16133;49.486;12.176;2023-11-25T01:45:25;95909.50;;;-0.30;100.00
29045;BME280;16133;49.486;12.176;2023-11-25T01:47:52;95927.47;;;-0.27;100.00
29045;BME280;16133;49.486;12.176;2023-11-25T01:50:19;95933.22;;;-0.24;100.00
29045;BME280;16133;49.486;12.176;2023-11-25T01:52:45;95938.63;;;-0.17;100.00
29045;BME280;16133;49.486;12.176;2023-11-25T01:55:12;95938.56;;;-0.25;100.00
29045;BME280;16133;49.486;12.176;2023-11-25T01:57:38;95939.59;;;-0.18;100.00
29045;BME280;16133;49.486;12.176;2023-11-25T02:00:05;95944.28;;;-0.04;100.00
29045;BME280;16133;49.486;12.176;2023-11-25T02:02:33;95956.06;;;-0.18;100.00
29045;BME280;16133;49.486;12.176;2023-11-25T02:05:01;95966.03;;;-0.13;100.00
29045;BME280;16133;49.486;12.176;2023-11-25T02:07:26;95970.00;;;-0.09;100.00
29045;BME280;16133;49.486;12.176;2023-11-25T02:09:52;95969.03;;;-0.08;100.00
29045;BME280;16133;49.486;12.176;2023-11-25T02:12:21;95980.84;;;0.04;100.00
29045;BME280;16133;49.486;12.176;2023-11-25T02:14:47;95987.03;;;-0.15;100.00
29045;BME280;16133;49.486;12.176;2023-11-25T02:17:13;95994.09;;;-0.07;100.00
29045;BME280;16133;49.486;12.176;2023-11-25T02:19:41;95996.78;;;0.01;100.00
29045;BME280;16133;49.486;12.176;2023-11-25T02:22:08;96008.22;;;0.00;100.00
29045;BME280;16133;49.486;12.176;2023-11-25T02:24:35;96039.63;;;-0.02;100.00
29045;BME280;16133;49.486;12.176;2023-11-25T02:27:03;96023.91;;;-0.10;100.00
29045;BME280;16133;49.486;12.176;2023-11-25T02:29:29;96036.03;;;-0.18;100.00
29045;BME280;16133;49.486;12.176;2023-11-25T02:32:03;96044.63;;;-0.08;100.00
29045;BME280;16133;49.486;12.176;2023-11-25T02:34:29;96039.69;;;-0.11;100.00
29045;BME280;16133;49.486;12.176;2023-11-25T02:36:56;96054.97;;;-0.16;100.00
29045;BME280;16133;49.486;12.176;2023-11-25T02:39:22;96065.13;;;-0.23;100.00
29045;BME280;16133;49.486;12.176;2023-11-25T02:41:52;96082.44;;;-0.22;100.00
29045;BME280;16133;49.486;12.176;2023-11-25T02:44:18;96077.28;;;-0.31;100.00
29045;BME280;16133;49.486;12.176;2023-11-25T02:46:45;96081.69;;;-0.41;100.00
29045;BME280;16133;49.486;12.176;2023-11-25T02:49:11;96081.97;;;-0.35;100.00
29045;BME280;16133;49.486;12.176;2023-11-25T02:51:36;96095.22;;;-0.28;100.00
29045;BME280;16133;49.486;12.176;2023-11-25T02:54:03;96116.38;;;-0.31;100.00
29045;BME280;16133;49.486;12.176;2023-11-25T02:56:31;96124.38;;;-0.42;100.00
29045;BME280;16133;49.486;12.176;2023-11-25T02:58:56;96140.03;;;-0.52;100.00
29045;BME280;16133;49.486;12.176;2023-11-25T03:01:22;96142.22;;;-0.47;100.00
29045;BME280;16133;49.486;12.176;2023-11-25T03:03:49;96148.81;;;-0.53;100.00
29045;BME280;16133;49.486;12.176;2023-11-25T03:06:14;96163.84;;;-0.37;100.00
29045;BME280;16133;49.486;12.176;2023-11-25T03:08:41;96173.19;;;-0.44;100.00
29045;BME280;16133;49.486;12.176;2023-11-25T03:11:07;96183.06;;;-0.48;100.00
29045;BME280;16133;49.486;12.176;2023-11-25T03:13:40;96193.53;;;-0.67;100.00
29045;BME280;16133;49.486;12.176;2023-11-25T03:16:07;96200.38;;;-0.57;100.00
29045;BME280;16133;49.486;12.176;2023-11-25T03:18:33;96203.13;;;-0.68;100.00
29045;BME280;16133;49.486;12.176;2023-11-25T03:20:58;96201.53;;;-0.78;100.00
29045;BME280;16133;49.486;12.176;2023-11-25T03:23:24;96206.69;;;-0.69;100.00
29045;BME280;16133;49.486;12.176;2023-11-25T03:25:49;96209.16;;;-0.67;100.00
29045;BME280;16133;49.486;12.176;2023-11-25T03:28:14;96224.94;;;-0.69;100.00
29045;BME280;16133;49.486;12.176;2023-11-25T03:30:40;96217.13;;;-0.69;100.00
29045;BME280;16133;49.486;12.176;2023-11-25T03:33:06;96232.47;;;-0.66;100.00
29045;BME280;16133;49.486;12.176;2023-11-25T03:35:31;96222.22;;;-0.77;100.00
29045;BME280;16133;49.486;12.176;2023-11-25T03:37:57;96221.25;;;-0.85;100.00
29045;BME280;16133;49.486;12.176;2023-11-25T03:40:23;96237.16;;;-0.79;100.00
29045;BME280;16133;49.486;12.176;2023-11-25T03:42:48;96240.03;;;-0.82;100.00
29045;BME280;16133;49.486;12.176;2023-11-25T03:45:14;96243.06;;;-0.77;100.00
29045;BME280;16133;49.486;12.176;2023-11-25T03:47:42;96267.31;;;-0.86;100.00
29045;BME280;16133;49.486;12.176;2023-11-25T03:50:09;96253.16;;;-0.64;100.00
29045;BME280;16133;49.486;12.176;2023-11-25T03:52:37;96263.19;;;-0.69;100.00
29045;BME280;16133;49.486;12.176;2023-11-25T03:55:04;96253.84;;;-0.72;100.00
29045;BME280;16133;49.486;12.176;2023-11-25T03:57:30;96251.94;;;-0.79;100.00
29045;BME280;16133;49.486;12.176;2023-11-25T03:59:56;96264.69;;;-0.76;100.00
29045;BME280;16133;49.486;12.176;2023-11-25T04:02:21;96269.50;;;-0.91;100.00
29045;BME280;16133;49.486;12.176;2023-11-25T04:04:47;96275.25;;;-0.97;100.00
29045;BME280;16133;49.486;12.176;2023-11-25T04:07:12;96276.34;;;-1.00;100.00
29045;BME280;16133;49.486;12.176;2023-11-25T04:09:37;96281.00;;;-1.03;100.00
29045;BME280;16133;49.486;12.176;2023-11-25T04:12:03;96293.31;;;-1.15;100.00
29045;BME280;16133;49.486;12.176;2023-11-25T04:14:29;96290.72;;;-1.05;100.00
29045;BME280;16133;49.486;12.176;2023-11-25T04:16:54;96310.31;;;-1.01;100.00
29045;BME280;16133;49.486;12.176;2023-11-25T04:19:21;96311.69;;;-0.97;100.00
29045;BME280;16133;49.486;12.176;2023-11-25T04:21:47;96302.91;;;-1.15;100.00
29045;BME280;16133;49.486;12.176;2023-11-25T04:24:15;96324.53;;;-1.15;100.00
29045;BME280;16133;49.486;12.176;2023-11-25T04:26:40;96293.59;;;-1.18;100.00
29045;BME280;16133;49.486;12.176;2023-11-25T04:29:06;96330.16;;;-1.19;100.00
29045;BME280;16133;49.486;12.176;2023-11-25T04:31:31;96340.81;;;-1.32;100.00
29045;BME280;16133;49.486;12.176;2023-11-25T04:33:57;96353.25;;;-1.35;100.00
29045;BME280;16133;49.486;12.176;2023-11-25T04:36:23;96341.75;;;-1.42;100.00
29045;BME280;16133;49.486;12.176;2023-11-25T04:38:50;96344.59;;;-1.46;100.00
29045;BME280;16133;49.486;12.176;2023-11-25T04:41:15;96347.47;;;-1.49;100.00
29045;BME280;16133;49.486;12.176;2023-11-25T04:43:41;96360.44;;;-1.58;100.00
29045;BME280;16133;49.486;12.176;2023-11-25T04:46:09;96353.59;;;-1.59;100.00
29045;BME280;16133;49.486;12.176;2023-11-25T04:48:35;96360.81;;;-1.63;100.00
29045;BME280;16133;49.486;12.176;2023-11-25T04:51:00;96359.25;;;-1.45;100.00
29045;BME280;16133;49.486;12.176;2023-11-25T04:53:26;96367.84;;;-1.54;100.00
29045;BME280;16133;49.486;12.176;2023-11-25T04:55:52;96361.94;;;-1.56;100.00
29045;BME280;16133;49.486;12.176;2023-11-25T04:58:17;96375.03;;;-1.67;100.00
29045;BME280;16133;49.486;12.176;2023-11-25T05:00:44;96367.78;;;-1.73;100.00
29045;BME280;16133;49.486;12.176;2023-11-25T05:03:10;96379.59;;;-1.59;100.00
29045;BME280;16133;49.486;12.176;2023-11-25T05:05:36;96365.75;;;-1.90;100.00
29045;BME280;16133;49.486;12.176;2023-11-25T05:08:02;96388.16;;;-1.68;100.00
29045;BME280;16133;49.486;12.176;2023-11-25T05:10:29;96391.19;;;-1.73;100.00
29045;BME280;16133;49.486;12.176;2023-11-25T05:12:55;96393.31;;;-1.78;100.00
29045;BME280;16133;49.486;12.176;2023-11-25T05:15:20;96399.03;;;-1.84;100.00
29045;BME280;16133;49.486;12.176;2023-11-25T05:17:48;96399.28;;;-1.87;100.00
29045;BME280;16133;49.486;12.176;2023-11-25T05:20:13;96402.88;;;-1.88;100.00
29045;BME280;16133;49.486;12.176;2023-11-25T05:22:41;96407.28;;;-1.79;100.00
29045;BME280;16133;49.486;12.176;2023-11-25T05:25:07;96407.00;;;-1.76;100.00
29045;BME280;16133;49.486;12.176;2023-11-25T05:27:32;96406.91;;;-1.44;100.00
29045;BME280;16133;49.486;12.176;2023-11-25T05:29:57;96411.28;;;-1.45;100.00
29045;BME280;16133;49.486;12.176;2023-11-25T05:32:23;96412.09;;;-1.44;100.00
29045;BME280;16133;49.486;12.176;2023-11-25T05:34:48;96416.47;;;-1.45;100.00
29045;BME280;16133;49.486;12.176;2023-11-25T05:37:14;96418.91;;;-1.53;100.00
29045;BME280;16133;49.486;12.176;2023-11-25T05:39:40;96422.31;;;-1.62;100.00
29045;BME280;16133;49.486;12.176;2023-11-25T05:42:06;96416.91;;;-1.70;100.00
29045;BME280;16133;49.486;12.176;2023-11-25T05:44:32;96418.06;;;-1.83;100.00
29045;BME280;16133;49.486;12.176;2023-11-25T05:46:58;96419.25;;;-1.87;100.00
29045;BME280;16133;49.486;12.176;2023-11-25T05:49:23;96425.72;;;-1.82;100.00
29045;BME280;16133;49.486;12.176;2023-11-25T05:51:49;96428.97;;;-1.89;100.00
29045;BME280;16133;49.486;12.176;2023-11-25T05:54:16;96433.34;;;-1.90;100.00
29045;BME280;16133;49.486;12.176;2023-11-25T05:56:45;96435.13;;;-1.90;100.00
29045;BME280;16133;49.486;12.176;2023-11-25T05:59:14;96440.47;;;-1.92;100.00
29045;BME280;16133;49.486;12.176;2023-11-25T06:01:40;96439.56;;;-1.81;100.00
29045;BME280;16133;49.486;12.176;2023-11-25T06:04:07;96441.84;;;-1.88;100.00
29045;BME280;16133;49.486;12.176;2023-11-25T06:06:32;96442.50;;;-1.96;100.00
29045;BME280;16133;49.486;12.176;2023-11-25T06:08:58;96452.28;;;-1.99;100.00
29045;BME280;16133;49.486;12.176;2023-11-25T06:11:27;96459.13;;;-1.98;100.00
29045;BME280;16133;49.486;12.176;2023-11-25T06:13:54;96462.00;;;-2.01;100.00
29045;BME280;16133;49.486;12.176;2023-11-25T06:16:22;96467.66;;;-1.96;100.00
29045;BME280;16133;49.486;12.176;2023-11-25T06:18:47;96468.06;;;-1.91;100.00
29045;BME280;16133;49.486;12.176;2023-11-25T06:21:14;96477.47;;;-1.79;100.00
29045;BME280;16133;49.486;12.176;2023-11-25T06:23:40;96487.13;;;-1.70;100.00
29045;BME280;16133;49.486;12.176;2023-11-25T06:26:05;96475.56;;;-1.56;100.00
29045;BME280;16133;49.486;12.176;2023-11-25T06:28:39;96491.16;;;-1.56;100.00
29045;BME280;16133;49.486;12.176;2023-11-25T06:31:04;96476.19;;;-1.64;100.00
29045;BME280;16133;49.486;12.176;2023-11-25T06:33:30;96483.25;;;-1.55;100.00
29045;BME280;16133;49.486;12.176;2023-11-25T06:35:56;96487.34;;;-1.52;100.00
29045;BME280;16133;49.486;12.176;2023-11-25T06:38:22;96503.16;;;-1.44;100.00
29045;BME280;16133;49.486;12.176;2023-11-25T06:40:49;96501.88;;;-1.29;100.00
29045;BME280;16133;49.486;12.176;2023-11-25T06:43:14;96497.88;;;-1.33;100.00
29045;BME280;16133;49.486;12.176;2023-11-25T06:45:41;96505.22;;;-1.17;100.00
29045;BME280;16133;49.486;12.176;2023-11-25T06:48:07;96517.38;;;-1.27;100.00
29045;BME280;16133;49.486;12.176;2023-11-25T06:50:35;96518.22;;;-1.17;100.00
29045;BME280;16133;49.486;12.176;2023-11-25T06:53:01;96516.38;;;-1.26;100.00
29045;BME280;16133;49.486;12.176;2023-11-25T06:55:26;96506.56;;;-1.23;100.00
29045;BME280;16133;49.486;12.176;2023-11-25T06:57:52;96521.00;;;-1.09;100.00
29045;BME280;16133;49.486;12.176;2023-11-25T07:00:17;96527.63;;;-1.26;100.00
29045;BME280;16133;49.486;12.176;2023-11-25T07:02:43;96518.69;;;-1.33;100.00
29045;BME280;16133;49.486;12.176;2023-11-25T07:05:09;96519.53;;;-1.32;100.00
29045;BME280;16133;49.486;12.176;2023-11-25T07:07:35;96517.63;;;-1.30;100.00
29045;BME280;16133;49.486;12.176;2023-11-25T07:10:00;96508.53;;;-1.57;100.00
29045;BME280;16133;49.486;12.176;2023-11-25T07:12:29;96525.13;;;-1.58;100.00
29045;BME280;16133;49.486;12.176;2023-11-25T07:14:56;96526.81;;;-1.68;100.00
29045;BME280;16133;49.486;12.176;2023-11-25T07:17:21;96522.59;;;-1.69;100.00
29045;BME280;16133;49.486;12.176;2023-11-25T07:19:47;96524.47;;;-1.71;100.00
29045;BME280;16133;49.486;12.176;2023-11-25T07:22:13;96534.63;;;-1.68;100.00
29045;BME280;16133;49.486;12.176;2023-11-25T07:24:38;96514.81;;;-1.80;100.00
29045;BME280;16133;49.486;12.176;2023-11-25T07:27:08;96527.06;;;-1.71;100.00
29045;BME280;16133;49.486;12.176;2023-11-25T07:29:36;96534.88;;;-1.71;100.00
29045;BME280;16133;49.486;12.176;2023-11-25T07:32:02;96536.91;;;-1.74;100.00
29045;BME280;16133;49.486;12.176;2023-11-25T07:34:29;96544.75;;;-1.65;100.00
29045;BME280;16133;49.486;12.176;2023-11-25T07:36:57;96536.72;;;-1.62;100.00
29045;BME280;16133;49.486;12.176;2023-11-25T07:39:22;96535.53;;;-1.58;100.00
29045;BME280;16133;49.486;12.176;2023-11-25T07:41:51;96537.16;;;-1.57;100.00
29045;BME280;16133;49.486;12.176;2023-11-25T07:44:24;96542.94;;;-1.53;100.00
29045;BME280;16133;49.486;12.176;2023-11-25T07:46:50;96531.56;;;-1.52;100.00
29045;BME280;16133;49.486;12.176;2023-11-25T07:49:18;96533.81;;;-1.48;100.00
29045;BME280;16133;49.486;12.176;2023-11-25T07:51:47;96534.50;;;-1.46;100.00
29045;BME280;16133;49.486;12.176;2023-11-25T07:54:14;96529.47;;;-1.37;100.00
29045;BME280;16133;49.486;12.176;2023-11-25T07:56:39;96537.06;;;-1.34;100.00
29045;BME280;16133;49.486;12.176;2023-11-25T07:59:04;96535.59;;;-1.27;100.00
29045;BME280;16133;49.486;12.176;2023-11-25T08:01:30;96541.91;;;-1.20;100.00
29045;BME280;16133;49.486;12.176;2023-11-25T08:03:56;96543.44;;;-1.18;100.00
29045;BME280;16133;49.486;12.176;2023-11-25T08:06:21;96535.69;;;-1.08;100.00
29045;BME280;16133;49.486;12.176;2023-11-25T08:08:54;96531.59;;;-1.01;100.00
29045;BME280;16133;49.486;12.176;2023-11-25T08:11:27;96538.75;;;-0.93;100.00
29045;BME280;16133;49.486;12.176;2023-11-25T08:13:54;96530.31;;;-0.86;100.00
29045;BME280;16133;49.486;12.176;2023-11-25T08:16:20;96529.09;;;-0.72;100.00
29045;BME280;16133;49.486;12.176;2023-11-25T08:18:46;96532.31;;;-0.59;100.00
29045;BME280;16133;49.486;12.176;2023-11-25T08:21:12;96539.91;;;-0.46;100.00
29045;BME280;16133;49.486;12.176;2023-11-25T08:23:41;96540.47;;;-0.43;100.00
29045;BME280;16133;49.486;12.176;2023-11-25T08:26:17;96531.97;;;-0.35;100.00
29045;BME280;16133;49.486;12.176;2023-11-25T08:28:44;96536.09;;;-0.33;100.00
29045;BME280;16133;49.486;12.176;2023-11-25T08:31:09;96536.63;;;-0.29;100.00
29045;BME280;16133;49.486;12.176;2023-11-25T08:33:35;96529.25;;;-0.24;100.00
29045;BME280;16133;49.486;12.176;2023-11-25T08:36:01;96553.66;;;-0.25;100.00
29045;BME280;16133;49.486;12.176;2023-11-25T08:38:26;96550.09;;;-0.24;100.00
29045;BME280;16133;49.486;12.176;2023-11-25T08:40:51;96541.56;;;-0.26;100.00
29045;BME280;16133;49.486;12.176;2023-11-25T08:43:18;96537.47;;;-0.29;100.00
29045;BME280;16133;49.486;12.176;2023-11-25T08:45:43;96536.34;;;-0.26;100.00
29045;BME280;16133;49.486;12.176;2023-11-25T08:48:13;96541.06;;;-0.20;100.00
29045;BME280;16133;49.486;12.176;2023-11-25T08:50:39;96544.75;;;-0.13;100.00
29045;BME280;16133;49.486;12.176;2023-11-25T08:53:05;96546.97;;;-0.09;100.00
29045;BME280;16133;49.486;12.176;2023-11-25T08:55:30;96545.31;;;-0.10;100.00
29045;BME280;16133;49.486;12.176;2023-11-25T08:57:56;96546.28;;;-0.01;100.00
29045;BME280;16133;49.486;12.176;2023-11-25T09:00:22;96534.50;;;-0.05;100.00
29045;BME280;16133;49.486;12.176;2023-11-25T09:02:48;96527.88;;;0.00;100.00
29045;BME280;16133;49.486;12.176;2023-11-25T09:05:18;96533.50;;;-0.14;100.00
29045;BME280;16133;49.486;12.176;2023-11-25T09:07:48;96547.81;;;0.02;100.00
29045;BME280;16133;49.486;12.176;2023-11-25T09:10:18;96530.63;;;-0.20;100.00
29045;BME280;16133;49.486;12.176;2023-11-25T09:12:44;96543.66;;;-0.20;100.00
29045;BME280;16133;49.486;12.176;2023-11-25T09:15:11;96542.97;;;-0.03;100.00
29045;BME280;16133;49.486;12.176;2023-11-25T09:17:39;96544.91;;;0.05;100.00
29045;BME280;16133;49.486;12.176;2023-11-25T09:20:11;96557.25;;;-0.17;100.00
29045;BME280;16133;49.486;12.176;2023-11-25T09:22:38;96557.53;;;-0.20;100.00
29045;BME280;16133;49.486;12.176;2023-11-25T09:25:04;96555.44;;;-0.26;100.00
29045;BME280;16133;49.486;12.176;2023-11-25T09:27:30;96561.47;;;-0.25;100.00
29045;BME280;16133;49.486;12.176;2023-11-25T09:29:55;96555.84;;;-0.30;100.00
29045;BME280;16133;49.486;12.176;2023-11-25T09:32:21;96554.44;;;-0.34;100.00
29045;BME280;16133;49.486;12.176;2023-11-25T09:34:47;96549.50;;;-0.37;100.00
29045;BME280;16133;49.486;12.176;2023-11-25T09:37:14;96554.97;;;-0.50;100.00
29045;BME280;16133;49.486;12.176;2023-11-25T09:39:40;96548.44;;;-0.35;100.00
29045;BME280;16133;49.486;12.176;2023-11-25T09:42:06;96553.59;;;-0.44;100.00
29045;BME280;16133;49.486;12.176;2023-11-25T09:44:32;96556.59;;;-0.59;100.00
29045;BME280;16133;49.486;12.176;2023-11-25T09:46:57;96557.66;;;-0.61;100.00
29045;BME280;16133;49.486;12.176;2023-11-25T09:49:23;96547.50;;;-0.64;100.00
29045;BME280;16133;49.486;12.176;2023-11-25T09:51:51;96536.25;;;-0.65;100.00
29045;BME280;16133;49.486;12.176;2023-11-25T09:54:22;96552.44;;;-0.71;100.00
29045;BME280;16133;49.486;12.176;2023-11-25T09:56:48;96558.47;;;-0.61;100.00
29045;BME280;16133;49.486;12.176;2023-11-25T09:59:15;96556.09;;;-0.43;100.00
29045;BME280;16133;49.486;12.176;2023-11-25T10:01:42;96559.09;;;-0.38;100.00
29045;BME280;16133;49.486;12.176;2023-11-25T10:04:08;96558.59;;;-0.22;100.00
29045;BME280;16133;49.486;12.176;2023-11-25T10:06:36;96549.28;;;-0.15;100.00
29045;BME280;16133;49.486;12.176;2023-11-25T10:09:02;96546.28;;;-0.11;100.00
29045;BME280;16133;49.486;12.176;2023-11-25T10:11:29;96543.53;;;0.00;100.00
29045;BME280;16133;49.486;12.176;2023-11-25T10:13:56;96544.63;;;-0.02;100.00
29045;BME280;16133;49.486;12.176;2023-11-25T10:16:27;96550.56;;;0.10;100.00
29045;BME280;16133;49.486;12.176;2023-11-25T10:18:56;96546.03;;;0.21;100.00
29045;BME280;16133;49.486;12.176;2023-11-25T10:21:22;96530.09;;;0.24;100.00
29045;BME280;16133;49.486;12.176;2023-11-25T10:23:50;96530.78;;;0.45;100.00
29045;BME280;16133;49.486;12.176;2023-11-25T10:26:16;96529.41;;;0.41;100.00
29045;BME280;16133;49.486;12.176;2023-11-25T10:28:46;96516.06;;;0.54;100.00
29045;BME280;16133;49.486;12.176;2023-11-25T10:31:13;96521.16;;;0.56;100.00
29045;BME280;16133;49.486;12.176;2023-11-25T10:33:44;96516.88;;;0.55;100.00
29045;BME280;16133;49.486;12.176;2023-11-25T10:36:09;96513.03;;;0.68;100.00
29045;BME280;16133;49.486;12.176;2023-11-25T10:38:39;96507.34;;;0.82;100.00
29045;BME280;16133;49.486;12.176;2023-11-25T10:41:05;96498.81;;;0.90;100.00
29045;BME280;16133;49.486;12.176;2023-11-25T10:43:31;96498.81;;;1.00;100.00
29045;BME280;16133;49.486;12.176;2023-11-25T10:46:15;96493.38;;;1.11;100.00
29045;BME280;16133;49.486;12.176;2023-11-25T10:48:42;96488.84;;;1.13;100.00
29045;BME280;16133;49.486;12.176;2023-11-25T10:51:08;96481.09;;;1.21;100.00
29045;BME280;16133;49.486;12.176;2023-11-25T10:53:37;96478.44;;;1.03;100.00
29045;BME280;16133;49.486;12.176;2023-11-25T10:56:03;96466.34;;;1.02;100.00
29045;BME280;16133;49.486;12.176;2023-11-25T10:58:34;96470.84;;;1.10;100.00
29045;BME280;16133;49.486;12.176;2023-11-25T11:01:01;96476.72;;;1.12;100.00
29045;BME280;16133;49.486;12.176;2023-11-25T11:06:04;96495.19;;;1.37;100.00
29045;BME280;16133;49.486;12.176;2023-11-25T11:08:32;96482.78;;;1.39;100.00
29045;BME280;16133;49.486;12.176;2023-11-25T11:11:09;96480.38;;;1.56;100.00
29045;BME280;16133;49.486;12.176;2023-11-25T11:14:09;96473.66;;;1.53;100.00
29045;BME280;16133;49.486;12.176;2023-11-25T11:19:07;96479.34;;;1.66;100.00
29045;BME280;16133;49.486;12.176;2023-11-25T11:21:36;96473.19;;;1.58;100.00
29045;BME280;16133;49.486;12.176;2023-11-25T11:24:02;96467.06;;;1.49;100.00
29045;BME280;16133;49.486;12.176;2023-11-25T11:26:29;96476.44;;;1.42;100.00
29045;BME280;16133;49.486;12.176;2023-11-25T11:29:15;96479.78;;;1.34;100.00
29045;BME280;16133;49.486;12.176;2023-11-25T11:32:02;96472.84;;;1.25;100.00
29045;BME280;16133;49.486;12.176;2023-11-25T11:34:30;96477.38;;;1.23;100.00
29045;BME280;16133;49.486;12.176;2023-11-25T11:36:56;96471.31;;;1.23;100.00
29045;BME280;16133;49.486;12.176;2023-11-25T11:39:36;96467.91;;;1.22;100.00
29045;BME280;16133;49.486;12.176;2023-11-25T11:45:14;96455.59;;;1.32;100.00
29045;BME280;16133;49.486;12.176;2023-11-25T11:47:47;96453.66;;;1.34;100.00
29045;BME280;16133;49.486;12.176;2023-11-25T11:50:17;96415.78;;;1.21;100.00
29045;BME280;16133;49.486;12.176;2023-11-25T12:03:07;96430.19;;;1.52;100.00
29045;BME280;16133;49.486;12.176;2023-11-25T12:05:36;96433.69;;;1.61;100.00
29045;BME280;16133;49.486;12.176;2023-11-25T12:08:02;96432.13;;;1.68;100.00
29045;BME280;16133;49.486;12.176;2023-11-25T12:10:28;96426.38;;;1.64;100.00
29045;BME280;16133;49.486;12.176;2023-11-25T12:12:53;96426.81;;;1.60;100.00
29045;BME280;16133;49.486;12.176;2023-11-25T12:15:20;96427.78;;;1.59;100.00
29045;BME280;16133;49.486;12.176;2023-11-25T12:17:46;96432.34;;;1.57;100.00
29045;BME280;16133;49.486;12.176;2023-11-25T12:20:14;96421.91;;;1.57;100.00
29045;BME280;16133;49.486;12.176;2023-11-25T12:22:41;96423.81;;;1.55;100.00
29045;BME280;16133;49.486;12.176;2023-11-25T12:25:07;96422.09;;;1.46;100.00
29045;BME280;16133;49.486;12.176;2023-11-25T12:28:07;96413.28;;;1.47;100.00
29045;BME280;16133;49.486;12.176;2023-11-25T12:30:40;96410.88;;;1.35;100.00
29045;BME280;16133;49.486;12.176;2023-11-25T12:33:06;96412.91;;;1.41;100.00
29045;BME280;16133;49.486;12.176;2023-11-25T12:35:37;96412.81;;;1.33;100.00
29045;BME280;16133;49.486;12.176;2023-11-25T12:38:03;96405.75;;;1.43;100.00
29045;BME280;16133;49.486;12.176;2023-11-25T12:40:32;96399.72;;;1.61;100.00
29045;BME280;16133;49.486;12.176;2023-11-25T12:42:58;96396.25;;;1.78;100.00
29045;BME280;16133;49.486;12.176;2023-11-25T12:45:28;96401.88;;;1.83;100.00
29045;BME280;16133;49.486;12.176;2023-11-25T12:47:54;96386.38;;;1.89;100.00
29045;BME280;16133;49.486;12.176;2023-11-25T12:50:22;96393.06;;;1.84;100.00
29045;BME280;16133;49.486;12.176;2023-11-25T12:53:10;96395.59;;;1.76;100.00
29045;BME280;16133;49.486;12.176;2023-11-25T12:55:42;96390.50;;;1.74;100.00
29045;BME280;16133;49.486;12.176;2023-11-25T12:58:10;96388.78;;;1.83;100.00
29045;BME280;16133;49.486;12.176;2023-11-25T13:00:43;96391.25;;;1.67;100.00